createdAt,value
2018-07-10T00:00:31.187Z,18.06
2018-07-10T00:04:46.283Z,18.16
2018-07-10T00:08:03.463Z,18.22
2018-07-10T00:11:18.192Z,18.18
2018-07-10T00:14:21.455Z,18.26
2018-07-10T00:17:24.671Z,18.16
2018-07-10T00:20:27.908Z,18.13
2018-07-10T00:23:31.111Z,18.05
2018-07-10T00:26:34.344Z,18.10
2018-07-10T00:29:37.500Z,17.93
2018-07-10T00:32:40.752Z,17.81
2018-07-10T00:35:43.972Z,17.73
2018-07-10T00:39:02.402Z,17.89
2018-07-10T00:42:05.571Z,17.79
2018-07-10T00:45:08.881Z,17.56
2018-07-10T00:48:12.087Z,17.40
2018-07-10T00:51:15.317Z,17.39
2018-07-10T00:54:18.616Z,17.53
2018-07-10T00:57:21.835Z,17.63
2018-07-10T01:00:32.730Z,17.59
2018-07-10T01:03:35.914Z,17.66
2018-07-10T01:06:39.106Z,17.30
2018-07-10T01:09:42.321Z,17.23
2018-07-10T01:12:45.525Z,17.30
2018-07-10T01:15:48.715Z,17.33
2018-07-10T01:18:54.648Z,17.30
2018-07-10T01:21:57.789Z,17.31
2018-07-10T01:25:00.941Z,17.09
2018-07-10T01:28:04.242Z,17.27
2018-07-10T01:31:07.430Z,17.39
2018-07-10T01:34:16.508Z,17.37
2018-07-10T01:37:19.848Z,17.40
2018-07-10T01:40:23.111Z,17.37
2018-07-10T01:43:26.340Z,17.31
2018-07-10T01:46:29.489Z,17.35
2018-07-10T01:49:32.673Z,17.32
2018-07-10T01:52:35.841Z,17.30
2018-07-10T01:55:39.061Z,17.26
2018-07-10T01:58:42.296Z,17.04
2018-07-10T02:01:45.508Z,17.00
2018-07-10T02:04:48.737Z,16.72
2018-07-10T02:07:51.972Z,16.91
2018-07-10T02:10:55.130Z,17.03
2018-07-10T02:13:58.334Z,17.05
2018-07-10T02:17:01.423Z,16.84
2018-07-10T02:20:04.590Z,16.94
2018-07-10T02:23:07.768Z,17.06
2018-07-10T02:26:23.259Z,17.05
2018-07-10T02:29:26.412Z,16.94
2018-07-10T02:32:29.565Z,17.16
2018-07-10T02:35:32.732Z,17.04
2018-07-10T02:38:40.355Z,16.57
2018-07-10T02:41:43.709Z,16.55
2018-07-10T02:44:46.853Z,16.38
2018-07-10T02:47:50.310Z,16.27
2018-07-10T02:50:53.975Z,16.33
2018-07-10T02:53:57.141Z,16.42
2018-07-10T02:57:00.295Z,16.33
2018-07-10T03:00:03.571Z,16.09
2018-07-10T03:03:06.718Z,16.20
2018-07-10T03:06:09.859Z,16.26
2018-07-10T03:09:13.697Z,16.36
2018-07-10T03:12:17.172Z,16.60
2018-07-10T03:15:20.318Z,16.38
2018-07-10T03:18:23.506Z,16.39
2018-07-10T03:21:26.712Z,16.66
2018-07-10T03:24:30.227Z,16.51
2018-07-10T03:27:33.865Z,16.67
2018-07-10T03:30:37.051Z,16.54
2018-07-10T03:33:40.240Z,16.36
2018-07-10T03:36:43.431Z,16.36
2018-07-10T03:39:47.199Z,16.23
2018-07-10T03:42:51.244Z,16.51
2018-07-10T03:45:57.032Z,16.52
2018-07-10T03:49:00.397Z,16.61
2018-07-10T03:52:04.075Z,16.41
2018-07-10T03:55:11.789Z,16.32
2018-07-10T03:58:14.994Z,16.26
2018-07-10T04:01:18.266Z,16.23
2018-07-10T04:04:21.545Z,16.20
2018-07-10T04:07:26.122Z,15.79
2018-07-10T04:10:32.535Z,15.90
2018-07-10T04:13:37.094Z,16.02
2018-07-10T04:16:40.434Z,15.58
2018-07-10T04:19:44.130Z,15.82
2018-07-10T04:22:53.864Z,15.71
2018-07-10T04:25:57.820Z,16.06
2018-07-10T04:29:09.983Z,16.16
2018-07-10T04:32:14.204Z,16.16
2018-07-10T04:35:20.371Z,16.07
2018-07-10T04:38:26.638Z,16.19
2018-07-10T04:41:31.444Z,16.32
2018-07-10T04:44:34.731Z,16.19
2018-07-10T04:47:46.123Z,16.17
2018-07-10T04:50:52.306Z,16.01
2018-07-10T04:54:13.218Z,15.93
2018-07-10T04:57:22.064Z,16.02
2018-07-10T05:00:26.087Z,16.11
2018-07-10T05:03:30.233Z,16.07
2018-07-10T05:06:35.395Z,15.88
2018-07-10T05:09:39.720Z,15.81
2018-07-10T05:12:44.876Z,15.76
2018-07-10T05:15:52.777Z,15.97
2018-07-10T05:18:59.206Z,16.09
2018-07-10T05:22:02.545Z,16.06
